Time;durP1;ratioP1;P1;durP2;ratioP2;P2;SDS_P1;SDS_P2;PMS_P1;PMS_P2;Temp;Humidity;BMP_temperature;BMP_pressure;BME280_temperature;BME280_humidity;BME280_pressure;Samples;Min_cycle;Max_cycle;Signal;HPM_P1;HPM_P2
2021/12/15 00:01:37;;;;;;;;;;;7.90;99.90;;;;;;5084448;28;19947;-87
2021/12/15 00:04:05;;;;;;;;;;;8.90;99.90;;;;;;5083985;28;20466;-87
2021/12/15 00:06:33;;;;;;;;;;;8.00;99.90;;;;;;5083299;28;19936;-86
2021/12/15 00:09:00;;;;;;;;;;;8.00;99.90;;;;;;5084967;28;19984;-86
2021/12/15 00:11:33;;;;;;;;;;;8.00;99.90;;;;;;5085254;28;19925;-86
2021/12/15 00:14:02;;;;;;;;;;;7.90;99.90;;;;;;5086497;28;19925;-86
2021/12/15 00:16:29;;;;;;;;;;;8.00;99.90;;;;;;5092325;28;19924;-86
2021/12/15 00:18:56;;;;;;;;;;;7.90;99.90;;;;;;5087402;28;19960;-85
2021/12/15 00:21:23;;;;;;;;;;;7.90;99.90;;;;;;5085602;28;19971;-88
2021/12/15 00:23:50;;;;;;;;;;;7.90;99.90;;;;;;5085562;28;19924;-87
2021/12/15 00:26:17;;;;;;;;;;;8.10;99.90;;;;;;5111641;22;19972;-82
2021/12/15 00:28:44;;;;;;;;;;;10.00;99.90;;;;;;5089748;28;19963;-81
2021/12/15 00:31:13;;;;;;;;;;;8.00;99.90;;;;;;5089791;28;19971;-81
2021/12/15 00:33:40;;;;;;;;;;;8.10;99.90;;;;;;5090384;28;19997;-81
2021/12/15 00:36:07;;;;;;;;;;;8.10;99.90;;;;;;5089949;28;19996;-82
2021/12/15 00:38:34;;;;;;;;;;;8.60;99.90;;;;;;5088196;28;19968;-82
2021/12/15 00:41:01;;;;;;;;;;;9.00;99.90;;;;;;5095806;28;19943;-82
2021/12/15 00:43:28;;;;;;;;;;;8.10;99.90;;;;;;5096360;28;19925;-82
2021/12/15 00:45:54;;;;;;;;;;;9.00;99.90;;;;;;5093121;28;19964;-83
2021/12/15 00:48:23;;;;;;;;;;;8.10;99.90;;;;;;5088711;28;19925;-82
2021/12/15 00:50:49;;;;;;;;;;;8.10;99.90;;;;;;5089859;28;20329;-83
2021/12/15 00:53:16;;;;;;;;;;;8.10;99.90;;;;;;5090402;28;19991;-82
2021/12/15 00:55:44;;;;;;;;;;;8.60;99.90;;;;;;5094733;28;19975;-81
2021/12/15 00:58:11;;;;;;;;;;;8.50;99.90;;;;;;5092508;28;19925;-82
2021/12/15 01:00:39;;;;;;;;;;;8.00;99.90;;;;;;5087934;28;19956;-82
2021/12/15 01:03:06;;;;;;;;;;;9.30;99.90;;;;;;5087546;28;20344;-82
2021/12/15 01:05:38;;;;;;;;;;;8.10;99.90;;;;;;5086626;28;19924;-83
2021/12/15 01:08:06;;;;;;;;;;;8.10;99.90;;;;;;5087413;28;19983;-83
2021/12/15 01:10:45;;;;;;;;;;;8.40;99.90;;;;;;5088248;28;19964;-81
2021/12/15 01:21:26;;;;;;;;;;;8.30;99.90;;;;;;5092712;28;19950;-82
2021/12/15 01:23:53;;;;;;;;;;;8.00;99.90;;;;;;5088102;28;19925;-82
2021/12/15 01:26:19;;;;;;;;;;;9.60;99.90;;;;;;5091390;28;19995;-81
2021/12/15 01:28:46;;;;;;;;;;;8.00;99.90;;;;;;5098037;28;19925;-81
2021/12/15 01:31:13;;;;;;;;;;;8.90;99.90;;;;;;5098222;28;19924;-81
2021/12/15 01:33:40;;;;;;;;;;;8.00;99.90;;;;;;5096449;28;19959;-82
2021/12/15 01:36:07;;;;;;;;;;;8.70;99.90;;;;;;5090163;28;19924;-83
2021/12/15 01:38:36;;;;;;;;;;;8.20;99.90;;;;;;5091269;28;19973;-81
2021/12/15 01:41:03;;;;;;;;;;;8.30;99.90;;;;;;5081815;28;19924;-81
2021/12/15 01:43:39;;;;;;;;;;;10.10;99.90;;;;;;5077216;28;19942;-81
2021/12/15 01:48:57;;;;;;;;;;;8.00;99.90;;;;;;5080255;28;19948;-81
2021/12/15 01:51:24;;;;;;;;;;;8.20;99.90;;;;;;5080624;28;20379;-81
2021/12/15 01:53:53;;;;;;;;;;;8.60;99.90;;;;;;5082752;28;19924;-81
2021/12/15 01:56:20;;;;;;;;;;;8.80;99.90;;;;;;5082277;28;19960;-82
2021/12/15 01:58:47;;;;;;;;;;;9.10;99.90;;;;;;5082836;28;20034;-81
2021/12/15 02:01:14;;;;;;;;;;;8.10;99.90;;;;;;5084201;28;20016;-81
2021/12/15 02:03:41;;;;;;;;;;;8.40;99.90;;;;;;5083105;28;19959;-81
2021/12/15 02:06:08;;;;;;;;;;;8.10;99.90;;;;;;5084204;28;20007;-81
2021/12/15 02:08:35;;;;;;;;;;;8.00;99.90;;;;;;5084696;28;20023;-82
2021/12/15 02:11:04;;;;;;;;;;;8.40;99.90;;;;;;5085608;28;19924;-82
2021/12/15 02:13:30;;;;;;;;;;;8.10;99.90;;;;;;5086635;28;19967;-82
2021/12/15 02:15:59;;;;;;;;;;;8.10;99.90;;;;;;5088659;28;19925;-82
2021/12/15 02:18:27;;;;;;;;;;;9.10;99.90;;;;;;5093220;28;19975;-83
2021/12/15 02:20:57;;;;;;;;;;;9.10;99.90;;;;;;5088253;28;19924;-82
2021/12/15 02:23:32;;;;;;;;;;;8.10;99.90;;;;;;5089682;28;19958;-82
2021/12/15 02:25:59;;;;;;;;;;;8.10;99.90;;;;;;5085685;28;19974;-83
2021/12/15 02:28:26;;;;;;;;;;;8.10;99.90;;;;;;5085452;28;20020;-83
2021/12/15 02:30:58;;;;;;;;;;;8.10;99.90;;;;;;5085300;28;20024;-82
2021/12/15 02:38:52;;;;;;;;;;;9.10;99.90;;;;;;5086140;28;19967;-83
2021/12/15 02:41:23;;;;;;;;;;;9.00;99.90;;;;;;5086037;28;19964;-83
2021/12/15 02:43:51;;;;;;;;;;;8.10;99.90;;;;;;5086002;28;19930;-83
2021/12/15 02:46:18;;;;;;;;;;;8.10;99.90;;;;;;5086010;28;19959;-82
2021/12/15 02:48:45;;;;;;;;;;;8.10;99.90;;;;;;5085376;28;19993;-83
2021/12/15 02:51:13;;;;;;;;;;;8.10;99.90;;;;;;5085858;28;19924;-82
2021/12/15 02:53:40;;;;;;;;;;;8.10;99.90;;;;;;5086407;28;19963;-82
2021/12/15 02:56:07;;;;;;;;;;;8.00;99.90;;;;;;5085204;28;19925;-82
2021/12/15 02:58:36;;;;;;;;;;;8.70;99.90;;;;;;5083870;28;19978;-83
2021/12/15 03:01:11;;;;;;;;;;;8.00;99.90;;;;;;5087284;28;19924;-82
2021/12/15 03:06:29;;;;;;;;;;;9.00;99.90;;;;;;5092153;28;19920;-82
2021/12/15 03:09:09;;;;;;;;;;;8.90;99.90;;;;;;5090869;28;19928;-82
2021/12/15 03:17:16;;;;;;;;;;;8.80;99.90;;;;;;5087635;28;19924;-83
2021/12/15 03:19:43;;;;;;;;;;;8.10;99.90;;;;;;5089009;28;20319;-82
2021/12/15 03:22:11;;;;;;;;;;;8.10;99.90;;;;;;5090882;28;19956;-82
2021/12/15 03:24:38;;;;;;;;;;;9.00;99.90;;;;;;5099475;28;19913;-81
2021/12/15 03:27:10;;;;;;;;;;;8.10;99.90;;;;;;5097972;28;19925;-81
2021/12/15 03:35:18;;;;;;;;;;;8.20;99.90;;;;;;5077980;28;19932;-81
2021/12/15 03:37:48;;;;;;;;;;;8.50;99.90;;;;;;5095148;28;20012;-81
2021/12/15 03:40:18;;;;;;;;;;;8.10;99.90;;;;;;5094572;28;20272;-82
2021/12/15 03:42:46;;;;;;;;;;;8.10;99.90;;;;;;5087820;28;19972;-82
2021/12/15 03:45:15;;;;;;;;;;;8.20;99.90;;;;;;5093725;28;19924;-82
2021/12/15 03:47:43;;;;;;;;;;;8.30;99.90;;;;;;5080683;28;19987;-81
2021/12/15 03:50:12;;;;;;;;;;;8.80;99.90;;;;;;5081522;28;19924;-81
2021/12/15 03:52:39;;;;;;;;;;;8.30;99.90;;;;;;5082927;28;19971;-82
2021/12/15 03:55:09;;;;;;;;;;;8.10;99.90;;;;;;5082771;28;19931;-81
2021/12/15 03:57:36;;;;;;;;;;;8.10;99.90;;;;;;5083907;28;19935;-81
2021/12/15 04:00:04;;;;;;;;;;;8.80;99.90;;;;;;5098861;28;19908;-80
2021/12/15 04:02:30;;;;;;;;;;;8.30;99.90;;;;;;5101022;28;19913;-80
2021/12/15 04:04:57;;;;;;;;;;;8.20;99.90;;;;;;5100903;28;19912;-81
2021/12/15 04:07:24;;;;;;;;;;;8.20;99.90;;;;;;5096823;28;19956;-83
2021/12/15 04:09:51;;;;;;;;;;;9.10;99.90;;;;;;5090044;28;19924;-82
2021/12/15 04:12:20;;;;;;;;;;;8.20;99.90;;;;;;5091492;28;19925;-82
2021/12/15 04:14:56;;;;;;;;;;;8.20;99.90;;;;;;5097598;28;19928;-82
2021/12/15 04:17:30;;;;;;;;;;;9.20;99.90;;;;;;5090569;28;19935;-83
2021/12/15 04:19:58;;;;;;;;;;;8.20;99.90;;;;;;5090871;28;19938;-82
2021/12/15 04:22:25;;;;;;;;;;;8.40;99.90;;;;;;5099993;28;19989;-81
2021/12/15 04:24:52;;;;;;;;;;;8.10;99.90;;;;;;5100584;28;19913;-81
2021/12/15 04:27:20;;;;;;;;;;;8.10;99.90;;;;;;5100163;28;19946;-80
2021/12/15 04:29:47;;;;;;;;;;;9.10;99.90;;;;;;5091809;28;20046;-82
2021/12/15 04:32:17;;;;;;;;;;;8.40;99.90;;;;;;5088431;28;19924;-82
2021/12/15 04:34:43;;;;;;;;;;;8.20;99.90;;;;;;5087072;28;20008;-83
2021/12/15 04:37:10;;;;;;;;;;;8.10;99.90;;;;;;5089020;28;19925;-83
2021/12/15 04:39:36;;;;;;;;;;;9.10;99.90;;;;;;5088214;28;20387;-82
2021/12/15 04:42:05;;;;;;;;;;;8.10;99.90;;;;;;5088686;28;20287;-82
2021/12/15 04:44:34;;;;;;;;;;;8.20;99.90;;;;;;5088317;28;19929;-82
2021/12/15 04:47:05;;;;;;;;;;;8.20;99.90;;;;;;5088074;28;20391;-82
2021/12/15 04:49:33;;;;;;;;;;;9.40;99.90;;;;;;5087398;28;19933;-82
2021/12/15 04:52:00;;;;;;;;;;;8.10;99.90;;;;;;5090211;28;20011;-82
2021/12/15 04:54:26;;;;;;;;;;;8.90;99.90;;;;;;5088107;28;19971;-82
2021/12/15 04:56:54;;;;;;;;;;;9.00;99.90;;;;;;5089280;28;20342;-82
2021/12/15 04:59:20;;;;;;;;;;;8.10;99.90;;;;;;5087943;28;19954;-81
2021/12/15 05:01:48;;;;;;;;;;;8.60;99.90;;;;;;5083620;28;19956;-82
2021/12/15 05:04:15;;;;;;;;;;;8.80;99.90;;;;;;5085111;28;20019;-81
2021/12/15 05:06:42;;;;;;;;;;;8.90;99.90;;;;;;5085220;28;19966;-82
2021/12/15 05:09:09;;;;;;;;;;;8.70;99.90;;;;;;5084767;28;19991;-82
2021/12/15 05:11:36;;;;;;;;;;;8.00;99.90;;;;;;5085921;28;20390;-82
2021/12/15 05:14:04;;;;;;;;;;;8.80;99.90;;;;;;5087473;28;20042;-82
2021/12/15 05:16:30;;;;;;;;;;;8.00;99.90;;;;;;5086707;28;19983;-82
2021/12/15 05:18:59;;;;;;;;;;;8.60;99.90;;;;;;5088132;28;19996;-82
2021/12/15 05:21:26;;;;;;;;;;;8.10;99.90;;;;;;5095181;28;19960;-82
2021/12/15 05:23:56;;;;;;;;;;;8.10;99.90;;;;;;5087542;28;20015;-82
2021/12/15 05:26:23;;;;;;;;;;;8.10;99.90;;;;;;5087021;28;19986;-82
2021/12/15 05:28:51;;;;;;;;;;;8.00;99.90;;;;;;5086664;28;19959;-81
2021/12/15 05:31:17;;;;;;;;;;;8.10;99.90;;;;;;5086592;28;20023;-81
2021/12/15 05:33:44;;;;;;;;;;;9.00;99.90;;;;;;5087061;28;20027;-82
2021/12/15 05:36:13;;;;;;;;;;;8.70;99.90;;;;;;5087264;28;20065;-82
2021/12/15 05:38:39;;;;;;;;;;;8.10;99.90;;;;;;5086234;28;19960;-81
2021/12/15 05:41:06;;;;;;;;;;;8.20;99.90;;;;;;5086793;28;20011;-82
2021/12/15 05:43:33;;;;;;;;;;;9.20;99.90;;;;;;5086663;28;20007;-81
2021/12/15 05:45:59;;;;;;;;;;;8.10;99.90;;;;;;5087263;28;20344;-82
2021/12/15 05:48:26;;;;;;;;;;;8.10;99.90;;;;;;5086722;28;20409;-82
2021/12/15 05:50:54;;;;;;;;;;;8.50;99.90;;;;;;5089458;28;20011;-81
2021/12/15 05:53:22;;;;;;;;;;;8.10;99.90;;;;;;5096617;28;19935;-82
2021/12/15 05:55:49;;;;;;;;;;;8.50;99.90;;;;;;5087889;28;20022;-81
2021/12/15 05:58:16;;;;;;;;;;;8.00;99.90;;;;;;5086604;28;19988;-83
2021/12/15 06:00:44;;;;;;;;;;;8.10;99.90;;;;;;5086013;28;19978;-81
2021/12/15 06:03:11;;;;;;;;;;;9.00;99.90;;;;;;5086351;28;19925;-81
2021/12/15 06:05:38;;;;;;;;;;;7.70;99.90;;;;;;5086666;28;19928;-81
2021/12/15 06:08:05;;;;;;;;;;;8.80;99.90;;;;;;5086395;28;19963;-81
2021/12/15 06:10:35;;;;;;;;;;;8.00;99.90;;;;;;5081690;28;19947;-81
2021/12/15 06:13:03;;;;;;;;;;;8.10;99.90;;;;;;5084707;28;20291;-82
2021/12/15 06:15:30;;;;;;;;;;;8.20;99.90;;;;;;5085887;28;19974;-81
2021/12/15 06:17:59;;;;;;;;;;;8.20;99.90;;;;;;5086291;28;19960;-81
2021/12/15 06:20:26;;;;;;;;;;;8.10;99.90;;;;;;5083895;28;19924;-82
2021/12/15 06:22:55;;;;;;;;;;;8.80;99.90;;;;;;5083934;28;20347;-82
2021/12/15 06:25:21;;;;;;;;;;;8.10;99.90;;;;;;5104851;22;19982;-88
2021/12/15 06:27:52;;;;;;;;;;;8.20;99.90;;;;;;5082234;28;19925;-88
2021/12/15 06:30:19;;;;;;;;;;;8.20;99.90;;;;;;5081789;28;19978;-88
2021/12/15 06:32:45;;;;;;;;;;;8.10;99.90;;;;;;5080897;28;19963;-88
2021/12/15 06:35:12;;;;;;;;;;;8.30;99.90;;;;;;5082557;28;19931;-88
2021/12/15 06:37:39;;;;;;;;;;;8.50;99.90;;;;;;5081159;28;20417;-87
2021/12/15 06:40:08;;;;;;;;;;;8.20;99.90;;;;;;5081529;28;19928;-87
2021/12/15 06:42:35;;;;;;;;;;;8.20;99.90;;;;;;5081016;28;19929;-86
2021/12/15 06:45:03;;;;;;;;;;;9.30;99.90;;;;;;5080739;28;19967;-86
2021/12/15 06:57:29;;;;;;;;;;;8.30;99.90;;;;;;5080812;28;20027;-88
2021/12/15 06:58:39;;;;;;;;;;;9.00;99.90;;;;;;5085935;28;19992;-87
2021/12/15 07:01:10;;;;;;;;;;;8.20;99.90;;;;;;5097911;28;19964;-87
2021/12/15 07:03:37;;;;;;;;;;;8.30;99.90;;;;;;5101034;28;19943;-85
2021/12/15 07:06:04;;;;;;;;;;;8.30;99.90;;;;;;5100437;28;19963;-87
2021/12/15 07:08:31;;;;;;;;;;;8.40;99.90;;;;;;5100911;28;19919;-87
2021/12/15 07:10:59;;;;;;;;;;;9.20;99.90;;;;;;5101312;28;19941;-87
2021/12/15 07:13:26;;;;;;;;;;;8.20;99.90;;;;;;5101969;28;19913;-87
2021/12/15 07:15:59;;;;;;;;;;;8.30;99.90;;;;;;5101921;28;19931;-85
2021/12/15 07:18:37;;;;;;;;;;;8.50;99.90;;;;;;5102272;28;19992;-84
2021/12/15 07:21:08;;;;;;;;;;;9.60;99.90;;;;;;5101196;28;19924;-87
2021/12/15 07:23:34;;;;;;;;;;;8.30;99.90;;;;;;5101962;28;19912;-85
2021/12/15 07:26:01;;;;;;;;;;;8.20;99.90;;;;;;5096717;28;19924;-87
2021/12/15 07:28:28;;;;;;;;;;;8.30;99.90;;;;;;5088597;28;19931;-86
2021/12/15 07:30:54;;;;;;;;;;;8.30;99.90;;;;;;5087987;28;19964;-87
2021/12/15 07:33:22;;;;;;;;;;;8.30;99.90;;;;;;5087268;28;19959;-88
2021/12/15 07:35:50;;;;;;;;;;;8.30;99.90;;;;;;5087559;28;19925;-85
2021/12/15 07:38:17;;;;;;;;;;;8.30;99.90;;;;;;5090387;28;20024;-86
2021/12/15 07:40:44;;;;;;;;;;;8.30;99.90;;;;;;5092933;28;20022;-86
2021/12/15 07:43:14;;;;;;;;;;;9.60;99.90;;;;;;5090486;28;20018;-86
2021/12/15 07:45:42;;;;;;;;;;;8.40;99.90;;;;;;5086739;28;19959;-87
2021/12/15 07:48:10;;;;;;;;;;;8.40;99.90;;;;;;5089218;28;19951;-86
2021/12/15 07:50:38;;;;;;;;;;;8.40;99.90;;;;;;5086285;28;19968;-87
2021/12/15 07:53:06;;;;;;;;;;;8.50;99.90;;;;;;5085103;28;19924;-88
2021/12/15 07:55:33;;;;;;;;;;;8.40;99.90;;;;;;5084970;28;20011;-87
2021/12/15 07:58:02;;;;;;;;;;;8.40;99.90;;;;;;5084545;28;19924;-87
2021/12/15 08:00:29;;;;;;;;;;;8.90;99.90;;;;;;5089771;28;19950;-87
2021/12/15 08:02:55;;;;;;;;;;;10.30;99.90;;;;;;5094780;28;19947;-86
2021/12/15 08:05:23;;;;;;;;;;;8.50;99.90;;;;;;5095465;28;19925;-88
2021/12/15 08:07:50;;;;;;;;;;;10.00;99.90;;;;;;5090222;28;19974;-87
2021/12/15 08:10:18;;;;;;;;;;;11.20;99.90;;;;;;5088041;28;19928;-87
2021/12/15 08:12:46;;;;;;;;;;;10.20;99.90;;;;;;5089871;28;19924;-86
2021/12/15 08:15:13;;;;;;;;;;;8.50;99.90;;;;;;5089529;28;20333;-85
2021/12/15 08:17:42;;;;;;;;;;;8.50;99.90;;;;;;5090075;28;19932;-85
2021/12/15 08:20:15;;;;;;;;;;;8.50;99.90;;;;;;5086877;28;19925;-87
2021/12/15 08:22:44;;;;;;;;;;;8.60;99.90;;;;;;5086248;28;19925;-86
2021/12/15 08:25:12;;;;;;;;;;;8.50;99.90;;;;;;5085715;28;19925;-86
2021/12/15 08:27:41;;;;;;;;;;;8.50;99.90;;;;;;5090210;28;19947;-85
2021/12/15 08:30:10;;;;;;;;;;;8.60;99.90;;;;;;5085922;28;19924;-86
2021/12/15 08:32:36;;;;;;;;;;;8.50;99.90;;;;;;5086163;28;20398;-86
2021/12/15 08:35:04;;;;;;;;;;;8.70;99.90;;;;;;5084876;28;19983;-86
2021/12/15 08:37:31;;;;;;;;;;;8.70;99.90;;;;;;5090505;28;19924;-83
2021/12/15 08:40:00;;;;;;;;;;;8.60;99.90;;;;;;5100406;28;19958;-83
2021/12/15 08:42:36;;;;;;;;;;;8.60;99.90;;;;;;5100211;28;19931;-84
2021/12/15 08:45:08;;;;;;;;;;;8.60;99.90;;;;;;5094497;28;19947;-84
2021/12/15 08:47:36;;;;;;;;;;;8.60;99.90;;;;;;5093627;28;20282;-84
2021/12/15 08:50:04;;;;;;;;;;;8.60;99.90;;;;;;5090930;28;19929;-83
2021/12/15 08:52:37;;;;;;;;;;;8.60;99.90;;;;;;5090888;28;19925;-87
2021/12/15 08:55:05;;;;;;;;;;;8.60;99.90;;;;;;5086211;28;19931;-88
2021/12/15 08:57:32;;;;;;;;;;;8.60;99.90;;;;;;5086653;28;19924;-87
2021/12/15 08:59:59;;;;;;;;;;;8.80;99.90;;;;;;5085323;28;19948;-87
2021/12/15 09:02:27;;;;;;;;;;;8.80;99.90;;;;;;5092583;28;19947;-86
2021/12/15 09:04:54;;;;;;;;;;;8.80;99.90;;;;;;5090365;28;19935;-85
2021/12/15 09:07:21;;;;;;;;;;;8.70;99.90;;;;;;5088409;28;19967;-86
2021/12/15 09:09:48;;;;;;;;;;;8.80;99.90;;;;;;5084923;28;20057;-86
2021/12/15 09:12:18;;;;;;;;;;;8.80;99.90;;;;;;5088144;28;19947;-85
2021/12/15 09:14:45;;;;;;;;;;;8.80;99.90;;;;;;5086651;28;19925;-86
2021/12/15 09:17:12;;;;;;;;;;;9.00;99.90;;;;;;5091021;28;19964;-85
2021/12/15 09:19:40;;;;;;;;;;;9.00;99.90;;;;;;5093416;28;19925;-84
2021/12/15 09:22:09;;;;;;;;;;;8.90;99.90;;;;;;5094315;28;19924;-84
2021/12/15 09:24:36;;;;;;;;;;;8.80;99.90;;;;;;5098634;28;19912;-84
2021/12/15 09:27:03;;;;;;;;;;;10.00;99.90;;;;;;5097782;28;19955;-84
2021/12/15 09:29:30;;;;;;;;;;;9.10;99.90;;;;;;5091513;28;19975;-84
2021/12/15 09:31:57;;;;;;;;;;;8.90;99.90;;;;;;5088625;28;20383;-75
2021/12/15 09:34:23;;;;;;;;;;;9.20;99.90;;;;;;5078811;28;20003;-76
2021/12/15 09:36:52;;;;;;;;;;;9.00;99.90;;;;;;5078098;28;20287;-78
2021/12/15 09:39:21;;;;;;;;;;;9.00;99.90;;;;;;5076851;28;19924;-76
2021/12/15 09:41:48;;;;;;;;;;;8.90;99.90;;;;;;5075994;28;19971;-76
2021/12/15 09:44:19;;;;;;;;;;;9.10;99.90;;;;;;5075791;28;19975;-75
2021/12/15 09:47:11;;;;;;;;;;;9.60;99.90;;;;;;5079852;28;19931;-78
2021/12/15 10:03:34;;;;;;;;;;;9.20;99.90;;;;;;5098248;28;19935;-82
2021/12/15 10:06:08;;;;;;;;;;;9.20;99.90;;;;;;5098584;28;19946;-84
2021/12/15 10:11:45;;;;;;;;;;;9.30;99.90;;;;;;5078593;28;20351;-76
2021/12/15 10:19:48;;;;;;;;;;;10.00;99.90;;;;;;5077717;28;19927;-76
2021/12/15 10:22:23;;;;;;;;;;;9.20;99.90;;;;;;5078608;28;20032;-77
2021/12/15 10:24:52;;;;;;;;;;;9.30;99.90;;;;;;5076671;28;20292;-76
2021/12/15 10:27:20;;;;;;;;;;;10.00;99.90;;;;;;5076468;28;20015;-76
2021/12/15 10:30:01;;;;;;;;;;;10.00;99.90;;;;;;5078284;28;19959;-84
2021/12/15 10:32:30;;;;;;;;;;;9.30;99.90;;;;;;5086821;28;19924;-85
2021/12/15 10:35:05;;;;;;;;;;;9.40;99.90;;;;;;5088958;28;20383;-85
2021/12/15 10:37:49;;;;;;;;;;;9.30;99.90;;;;;;5093525;28;21761;-87
2021/12/15 10:40:23;;;;;;;;;;;9.30;99.90;;;;;;5096215;28;19913;-83
2021/12/15 10:43:01;;;;;;;;;;;9.30;99.90;;;;;;5095892;28;19924;-83
2021/12/15 10:45:33;;;;;;;;;;;9.30;99.90;;;;;;5084986;28;19929;-85
2021/12/15 10:48:01;;;;;;;;;;;9.30;99.90;;;;;;5084628;28;19924;-85
2021/12/15 10:50:28;;;;;;;;;;;9.30;99.90;;;;;;5084171;28;19924;-85
2021/12/15 10:53:33;;;;;;;;;;;9.30;99.90;;;;;;5082852;28;19929;-86
2021/12/15 10:56:23;;;;;;;;;;;9.40;99.90;;;;;;5027181;28;19925;-87
2021/12/15 10:59:05;;;;;;;;;;;9.30;99.90;;;;;;5082872;28;19924;-86
2021/12/15 11:01:45;;;;;;;;;;;9.40;99.90;;;;;;5093208;28;19912;-83
2021/12/15 11:04:31;;;;;;;;;;;9.40;99.90;;;;;;5098169;28;19908;-85
2021/12/15 11:07:06;;;;;;;;;;;9.30;99.90;;;;;;5091189;28;19955;-84
2021/12/15 11:09:36;;;;;;;;;;;9.40;99.90;;;;;;5087137;28;20395;-87
2021/12/15 11:12:05;;;;;;;;;;;9.30;99.90;;;;;;5081847;28;19925;-86
2021/12/15 11:14:34;;;;;;;;;;;9.50;99.90;;;;;;5082628;28;19972;-86
2021/12/15 11:17:09;;;;;;;;;;;9.30;99.90;;;;;;5081714;28;19950;-85
2021/12/15 11:19:41;;;;;;;;;;;9.40;99.90;;;;;;5083318;28;19931;-85
2021/12/15 11:22:23;;;;;;;;;;;9.40;99.90;;;;;;5086518;28;19943;-86
2021/12/15 11:24:49;;;;;;;;;;;9.40;99.90;;;;;;5072709;28;19908;-84
2021/12/15 11:27:21;;;;;;;;;;;9.50;99.90;;;;;;5098118;28;19912;-86
2021/12/15 11:29:49;;;;;;;;;;;9.50;99.90;;;;;;5098137;28;19912;-85
2021/12/15 11:32:31;;;;;;;;;;;9.50;99.90;;;;;;5098340;28;19908;-83
2021/12/15 11:35:01;;;;;;;;;;;9.50;99.90;;;;;;5098022;28;19912;-85
2021/12/15 11:37:43;;;;;;;;;;;9.50;99.90;;;;;;5097205;28;20000;-87
2021/12/15 11:40:10;;;;;;;;;;;9.60;99.90;;;;;;5087381;28;19947;-86
2021/12/15 11:42:38;;;;;;;;;;;9.60;99.90;;;;;;5085653;28;19971;-86
2021/12/15 11:45:08;;;;;;;;;;;9.70;99.90;;;;;;5086758;28;19930;-87
2021/12/15 11:47:37;;;;;;;;;;;9.70;99.90;;;;;;5087961;28;19971;-85
2021/12/15 11:50:11;;;;;;;;;;;9.70;99.90;;;;;;5084999;28;19928;-86
2021/12/15 11:52:40;;;;;;;;;;;9.70;99.90;;;;;;5085467;28;19925;-85
2021/12/15 11:55:08;;;;;;;;;;;9.60;99.90;;;;;;5089582;28;19924;-85
2021/12/15 11:57:36;;;;;;;;;;;10.00;99.90;;;;;;5086800;28;19925;-85
2021/12/15 12:00:06;;;;;;;;;;;9.60;99.90;;;;;;5085769;28;19926;-85
2021/12/15 12:02:36;;;;;;;;;;;9.70;99.90;;;;;;5087614;28;19932;-85
2021/12/15 12:05:08;;;;;;;;;;;9.80;99.90;;;;;;5087049;28;19924;-84
2021/12/15 12:07:36;;;;;;;;;;;9.70;99.90;;;;;;5088031;28;19924;-84
2021/12/15 12:10:05;;;;;;;;;;;9.90;99.90;;;;;;5091718;28;19924;-84
2021/12/15 12:12:37;;;;;;;;;;;9.70;99.90;;;;;;5094691;28;20016;-83
2021/12/15 12:15:04;;;;;;;;;;;9.90;99.90;;;;;;5094371;28;19988;-82
2021/12/15 12:17:33;;;;;;;;;;;10.10;99.90;;;;;;5092581;28;19925;-84
2021/12/15 12:20:03;;;;;;;;;;;9.90;99.90;;;;;;5088394;28;19992;-82
2021/12/15 12:22:31;;;;;;;;;;;10.80;99.90;;;;;;5085625;28;19966;-85
2021/12/15 12:24:59;;;;;;;;;;;10.00;99.90;;;;;;5084488;28;19993;-85
2021/12/15 12:27:27;;;;;;;;;;;9.40;99.90;;;;;;5088081;28;19932;-82
2021/12/15 12:29:55;;;;;;;;;;;11.70;99.90;;;;;;5086812;28;19971;-81
2021/12/15 12:32:22;;;;;;;;;;;10.10;99.90;;;;;;5089468;28;19915;-84
2021/12/15 12:34:50;;;;;;;;;;;10.10;99.90;;;;;;5099786;28;19913;-85
2021/12/15 12:37:18;;;;;;;;;;;10.10;99.90;;;;;;5099365;28;19970;-84
2021/12/15 12:39:48;;;;;;;;;;;10.10;99.90;;;;;;5095297;28;20007;-85
2021/12/15 12:42:31;;;;;;;;;;;10.10;99.90;;;;;;5099555;28;19932;-85
2021/12/15 12:45:08;;;;;;;;;;;10.10;99.90;;;;;;5097180;28;19908;-85
2021/12/15 12:47:41;;;;;;;;;;;9.50;99.90;;;;;;5088945;28;20318;-84
2021/12/15 12:50:34;;;;;;;;;;;10.00;99.90;;;;;;5088509;28;19925;-85
2021/12/15 13:01:24;;;;;;;;;;;10.00;99.90;;;;;;5092189;28;19938;-86
2021/12/15 13:03:56;;;;;;;;;;;9.90;99.90;;;;;;5095868;28;19924;-86
2021/12/15 13:06:25;;;;;;;;;;;10.00;99.90;;;;;;5096781;28;19944;-85
2021/12/15 13:08:55;;;;;;;;;;;10.10;99.90;;;;;;5091286;28;19925;-85
2021/12/15 13:11:34;;;;;;;;;;;10.00;99.90;;;;;;5092484;28;19947;-88
2021/12/15 13:14:03;;;;;;;;;;;10.00;99.90;;;;;;5092760;28;19988;-86
2021/12/15 13:16:32;;;;;;;;;;;8.80;99.90;;;;;;5090474;28;19935;-87
2021/12/15 13:19:00;;;;;;;;;;;11.00;99.90;;;;;;5092652;28;19931;-85
2021/12/15 13:21:41;;;;;;;;;;;9.80;99.90;;;;;;5099929;28;19938;-85
2021/12/15 13:28:38;;;;;;;;;;;10.00;99.90;;;;;;5099189;28;19924;-86
2021/12/15 13:30:01;;;;;;;;;;;10.10;99.90;;;;;;5090853;28;20474;-86
2021/12/15 13:32:32;;;;;;;;;;;10.10;99.90;;;;;;5089189;28;20391;-85
2021/12/15 13:34:59;;;;;;;;;;;9.90;99.90;;;;;;5088706;28;19925;-84
2021/12/15 13:37:44;;;;;;;;;;;9.80;99.90;;;;;;5099563;28;19909;-82
2021/12/15 13:40:11;;;;;;;;;;;10.00;99.90;;;;;;5098246;28;19909;-85
2021/12/15 13:42:52;;;;;;;;;;;10.00;99.90;;;;;;5098170;28;19909;-82
2021/12/15 13:45:26;;;;;;;;;;;9.90;99.90;;;;;;5099531;28;19996;-83
2021/12/15 13:47:53;;;;;;;;;;;10.00;99.90;;;;;;5099302;28;20087;-83
2021/12/15 13:50:22;;;;;;;;;;;10.00;99.90;;;;;;5099606;28;19943;-84
2021/12/15 13:52:54;;;;;;;;;;;10.00;99.90;;;;;;5099523;28;19998;-83
2021/12/15 13:55:23;;;;;;;;;;;10.00;99.90;;;;;;5099371;28;19935;-84
2021/12/15 13:57:52;;;;;;;;;;;10.10;99.90;;;;;;5099631;28;19942;-84
2021/12/15 14:00:21;;;;;;;;;;;10.00;99.90;;;;;;5097371;28;19928;-84
2021/12/15 14:03:08;;;;;;;;;;;10.00;99.90;;;;;;5095062;28;19970;-85
2021/12/15 14:05:40;;;;;;;;;;;10.00;99.90;;;;;;5094127;28;19925;-85
2021/12/15 14:08:08;;;;;;;;;;;10.00;99.90;;;;;;5096626;28;19915;-86
2021/12/15 14:10:43;;;;;;;;;;;10.20;99.90;;;;;;5094606;28;19947;-87
2021/12/15 14:13:15;;;;;;;;;;;10.00;99.90;;;;;;5095409;28;19935;-85
2021/12/15 14:15:59;;;;;;;;;;;9.70;99.90;;;;;;5095958;28;20383;-84
2021/12/15 14:18:28;;;;;;;;;;;8.10;99.90;;;;;;5097338;28;19974;-87
2021/12/15 14:20:56;;;;;;;;;;;10.00;99.90;;;;;;5094572;28;19940;-84
2021/12/15 14:23:25;;;;;;;;;;;10.00;99.90;;;;;;5093316;28;19988;-86
2021/12/15 14:25:55;;;;;;;;;;;10.00;99.90;;;;;;5091730;28;20336;-86
2021/12/15 14:28:30;;;;;;;;;;;10.00;99.90;;;;;;5091944;28;19925;-85
2021/12/15 14:31:02;;;;;;;;;;;10.00;99.90;;;;;;5092772;28;19951;-85
2021/12/15 14:33:32;;;;;;;;;;;10.00;99.90;;;;;;5092221;28;19946;-86
2021/12/15 14:36:00;;;;;;;;;;;10.10;99.90;;;;;;5087274;28;19979;-85
2021/12/15 14:38:33;;;;;;;;;;;9.90;99.90;;;;;;5087156;28;19954;-85
2021/12/15 14:41:04;;;;;;;;;;;10.10;99.90;;;;;;5089630;28;19928;-83
2021/12/15 14:43:37;;;;;;;;;;;10.30;99.90;;;;;;5089087;28;20337;-85
2021/12/15 14:46:04;;;;;;;;;;;10.00;99.90;;;;;;5086041;28;19924;-87
2021/12/15 14:48:30;;;;;;;;;;;9.60;99.90;;;;;;5086363;28;19925;-87
2021/12/15 14:50:58;;;;;;;;;;;10.00;99.90;;;;;;5089706;28;19909;-83
2021/12/15 14:53:25;;;;;;;;;;;9.90;99.90;;;;;;5098242;28;19984;-84
2021/12/15 14:55:51;;;;;;;;;;;9.50;99.90;;;;;;5098457;28;19914;-85
2021/12/15 14:58:21;;;;;;;;;;;9.90;99.90;;;;;;5085319;28;19931;-85
2021/12/15 15:01:03;;;;;;;;;;;9.90;99.90;;;;;;5088333;28;20351;-87
2021/12/15 15:03:34;;;;;;;;;;;9.80;99.90;;;;;;5111967;22;20359;-85
2021/12/15 15:06:01;;;;;;;;;;;9.90;99.90;;;;;;5086368;28;20327;-84
2021/12/15 15:08:30;;;;;;;;;;;9.90;99.90;;;;;;5086771;28;19928;-84
2021/12/15 15:10:57;;;;;;;;;;;9.90;99.90;;;;;;5086848;28;19954;-84
2021/12/15 15:13:25;;;;;;;;;;;10.20;99.90;;;;;;5094171;28;19924;-84
2021/12/15 15:15:55;;;;;;;;;;;9.90;99.90;;;;;;5093727;28;20241;-84
2021/12/15 15:18:28;;;;;;;;;;;9.90;99.90;;;;;;5093584;28;19924;-85
2021/12/15 15:20:55;;;;;;;;;;;9.90;99.90;;;;;;5096620;28;19955;-84
2021/12/15 15:23:23;;;;;;;;;;;9.90;99.90;;;;;;5098433;28;19923;-82
2021/12/15 15:25:52;;;;;;;;;;;9.90;99.90;;;;;;5101309;28;19936;-76
2021/12/15 15:28:20;;;;;;;;;;;9.90;99.90;;;;;;5093239;28;19928;-77
2021/12/15 15:30:48;;;;;;;;;;;9.90;99.90;;;;;;5092194;28;19947;-78
2021/12/15 15:33:18;;;;;;;;;;;9.90;99.90;;;;;;5088602;28;19990;-77
2021/12/15 15:35:47;;;;;;;;;;;9.90;99.90;;;;;;5092460;28;19924;-84
2021/12/15 15:38:15;;;;;;;;;;;9.80;99.90;;;;;;5092897;28;19925;-85
2021/12/15 15:40:43;;;;;;;;;;;9.80;99.90;;;;;;5092777;28;19924;-85
2021/12/15 15:43:12;;;;;;;;;;;9.90;99.90;;;;;;5094375;28;19925;-85
2021/12/15 15:45:40;;;;;;;;;;;9.80;99.90;;;;;;5093809;28;19992;-84
2021/12/15 15:48:08;;;;;;;;;;;9.80;99.90;;;;;;5094000;28;19924;-84
2021/12/15 15:50:38;;;;;;;;;;;9.80;99.90;;;;;;5093822;28;19924;-85
2021/12/15 15:53:05;;;;;;;;;;;9.90;99.90;;;;;;5091768;28;19928;-80
2021/12/15 15:55:32;;;;;;;;;;;9.50;99.90;;;;;;5084408;28;19928;-79